K&a Sp — 3FVZ3 — position and weather

sailwx.info

Track history (hours):
 
Tides and Currents Weather Stations Pressure Air Temp Water Temp Dewpoint Dewpoint Depression Visibility Wind Speed Wind Dir Waves Ship Positions

K&a Sp

Last reported at 2015-Jan-11 10:20 UTC. Time now 2015-Jan-26 14:31 UTC.
Position N 31°09' E 122°48'.
Warning: this ship's position is 15 days out of date.

Length 177 m; draft 7.2 m.

Type: Cargo ship. MMSI: 354085000.

Date/timePositionNaut miles runAvg speedWind from/ knotsBaromVisibWave heightAir tempDewpointWater temp
2015-Jan-11 10:20N 31°09' E 122°48'0 0.0
2015-Jan-11 09:14N 31°09' E 122°48'0 0.0
2015-Jan-11 08:29N 31°09' E 122°48'0 0.0
2015-Jan-11 06:26N 31°09' E 122°48'0 0.0
2015-Jan-11 03:14N 31°09' E 122°48'0 0.0
2015-Jan-11 01:32N 31°09' E 122°48'0 0.0
2015-Jan-11 00:20N 31°09' E 122°48'0 0.0
2015-Jan-10 23:14N 31°09' E 122°48'0 0.0
2015-Jan-10 22:32N 31°09' E 122°48'0 0.0
2015-Jan-10 21:20N 31°09' E 122°48'0 0.0
2015-Jan-10 19:26N 31°09' E 122°48'0 0.0
2015-Jan-09 01:28N 31°09' E 122°48'0 0.0
2015-Jan-08 17:17N 31°09' E 122°47'20 9.9
2015-Jan-08 15:19N 31°05' E 122°25'810.3
2015-Jan-08 14:34N 31°07' E 122°16'1313.0
2015-Jan-08 13:33N 31°14' E 122°03'1515.0
2015-Jan-08 12:33N 31°18' E 121°46'1212.0
2015-Jan-08 11:33N 31°24' E 121°34'1111.1
2015-Jan-08 10:33N 31°31' E 121°24'1313.4
2015-Jan-08 09:34N 31°40' E 121°12'1312.6
2015-Jan-08 08:32N 31°47' E 120°59'1110.8
2015-Jan-08 07:33N 31°55' E 120°52'3 2.6
2015-Jan-08 06:26N 31°58' E 120°51'0 0.0
2015-Jan-08 05:29N 31°58' E 120°51'0 0.0
2015-Jan-08 04:32N 31°58' E 120°51'0 0.0
2015-Jan-08 03:50N 31°58' E 120°51'0 0.0
2015-Jan-07 20:32N 31°58' E 120°51'0 0.0
2015-Jan-07 19:31N 31°58' E 120°51'0 0.0
2015-Jan-07 18:31N 31°58' E 120°51'0 0.0
2015-Jan-07 17:23N 31°58' E 120°51'0 0.0
2015-Jan-07 16:32N 31°58' E 120°51'0 0.0
2015-Jan-07 15:29N 31°58' E 120°51'0 0.0
2015-Jan-07 14:32N 31°58' E 120°51'0 0.0
2015-Jan-07 13:32N 31°58' E 120°51'0 0.0
2015-Jan-07 12:29N 31°58' E 120°51'0 0.0
2015-Jan-07 11:32N 31°58' E 120°51'0 0.0
2015-Jan-07 10:28N 31°58' E 120°51'0 0.0
2015-Jan-07 09:32N 31°58' E 120°51'2 1.8
2015-Jan-07 08:33N 31°59' E 120°50'9 9.2
2015-Jan-07 07:33N 31°60' E 120°39'4 4.1
2015-Jan-07 06:33N 31°60' E 120°34'0 0.0
2015-Jan-07 05:33N 31°60' E 120°34'0 0.0
2015-Jan-07 04:30N 31°60' E 120°34'0 0.0
2015-Jan-07 03:30N 31°60' E 120°34'0 0.0
2015-Jan-07 02:33N 31°60' E 120°34'0 0.0
2015-Jan-07 01:33N 31°60' E 120°34'0 0.0
2015-Jan-07 00:33N 31°60' E 120°34'0 0.0
2015-Jan-06 23:33N 31°60' E 120°34'0 0.0
2015-Jan-06 22:30N 31°60' E 120°34'0 0.0
2015-Jan-06 21:33N 31°60' E 120°34'0 0.0
2015-Jan-06 20:33N 31°60' E 120°34'0 0.0
2015-Jan-06 19:33N 31°60' E 120°34'0 0.0
2015-Jan-06 18:33N 31°60' E 120°34'0 0.0
2015-Jan-06 17:30N 31°60' E 120°34'0 0.0
2015-Jan-06 16:33N 31°60' E 120°34'0 0.0
2015-Jan-06 15:33N 31°60' E 120°34'0 0.0
2015-Jan-06 14:33N 31°60' E 120°34'0 0.0
2015-Jan-06 13:30N 31°60' E 120°34'0 0.0
2015-Jan-06 12:33N 31°60' E 120°34'0 0.0
2015-Jan-06 11:33N 31°60' E 120°34'0 0.0
2015-Jan-06 10:33N 31°60' E 120°34'0 0.0
2015-Jan-06 09:33N 31°60' E 120°34'1 0.8
2015-Jan-06 08:33N 32°01' E 120°34'6 6.0
2015-Jan-06 07:33N 32°01' E 120°27'5 5.4
2015-Jan-06 06:33N 31°58' E 120°22'8 7.9
2015-Jan-06 05:33N 31°56' E 120°13'1110.8
2015-Jan-06 04:33N 31°59' E 120°00'1513.8
2015-Jan-06 03:28N 32°12' E 119°53'10 0.4
2015-Jan-05 00:31N 32°15' E 119°41'2 0.4
2015-Jan-04 20:29N 32°16' E 119°42'3 2.9
2015-Jan-04 19:34N 32°19' E 119°43'9 8.6
2015-Jan-04 18:33N 32°15' E 119°53'1111.0
2015-Jan-04 17:33N 32°05' E 119°56'10 9.7
2015-Jan-04 16:33N 31°58' E 120°04'9 9.3
2015-Jan-04 15:33N 31°56' E 120°15'7 7.0
2015-Jan-04 14:34N 31°58' E 120°22'5 5.2
2015-Jan-04 13:34N 32°02' E 120°27'9 9.2
2015-Jan-04 12:34N 31°60' E 120°38'10 9.5
2015-Jan-04 11:33N 32°00' E 120°49'1110.9
2015-Jan-04 10:33N 31°50' E 120°54'1010.2
2015-Jan-04 09:33N 31°46' E 121°05'1111.2
2015-Jan-04 08:33N 31°38' E 121°15'1111.4
2015-Jan-04 07:34N 31°31' E 121°24'9 8.6
2015-Jan-04 06:34N 31°25' E 121°32'8 7.7
2015-Jan-04 05:33N 31°21' E 121°40'8 8.1
2015-Jan-04 04:34N 31°17' E 121°48'1312.6
2015-Jan-04 03:33N 31°14' E 122°03'1313.1
2015-Jan-04 02:34N 31°08' E 122°16'1010.1
2015-Jan-04 01:33N 31°07' E 122°28'9 8.9
2015-Jan-04 00:34N 31°07' E 122°38'6 5.2
2015-Jan-03 23:30N 31°09' E 122°44'0 0.0
2015-Jan-03 22:30N 31°09' E 122°44'0 0.1
2015-Jan-03 21:30N 31°09' E 122°44'0 0.0
2015-Jan-03 20:24N 31°09' E 122°44'0 0.1
2015-Jan-03 19:24N 31°09' E 122°44'0 0.0
2015-Jan-03 18:30N 31°09' E 122°44'0 0.1
2015-Jan-03 17:30N 31°09' E 122°44'0 0.1
2015-Jan-03 14:06N 31°09' E 122°44'0 0.1
2015-Jan-03 13:30N 31°09' E 122°44'  
Track history (hours):
 
Tides and Currents Weather Stations Pressure Air Temp Water Temp Dewpoint Dewpoint Depression Visibility Wind Speed Wind Dir Waves Ship Positions

K&a Sp

Last reported at 2015-Jan-11 10:20 UTC. Time now 2015-Jan-26 14:31 UTC.
Position N 31°09' E 122°48'.
Warning: this ship's position is 15 days out of date.

Length 177 m; draft 7.2 m.

Type: Cargo ship. MMSI: 354085000.

Date/timePositionNaut miles runAvg speedWind from/ knotsBaromVisibWave heightAir tempDewpointWater temp
2015-Jan-11 10:20N 31°09' E 122°48'0 0.0
2015-Jan-11 09:14N 31°09' E 122°48'0 0.0
2015-Jan-11 08:29N 31°09' E 122°48'0 0.0
2015-Jan-11 06:26N 31°09' E 122°48'0 0.0
2015-Jan-11 03:14N 31°09' E 122°48'0 0.0
2015-Jan-11 01:32N 31°09' E 122°48'0 0.0
2015-Jan-11 00:20N 31°09' E 122°48'0 0.0
2015-Jan-10 23:14N 31°09' E 122°48'0 0.0
2015-Jan-10 22:32N 31°09' E 122°48'0 0.0
2015-Jan-10 21:20N 31°09' E 122°48'0 0.0
2015-Jan-10 19:26N 31°09' E 122°48'0 0.0
2015-Jan-09 01:28N 31°09' E 122°48'0 0.0
2015-Jan-08 17:17N 31°09' E 122°47'20 9.9
2015-Jan-08 15:19N 31°05' E 122°25'810.3
2015-Jan-08 14:34N 31°07' E 122°16'1313.0
2015-Jan-08 13:33N 31°14' E 122°03'1515.0
2015-Jan-08 12:33N 31°18' E 121°46'1212.0
2015-Jan-08 11:33N 31°24' E 121°34'1111.1
2015-Jan-08 10:33N 31°31' E 121°24'1313.4
2015-Jan-08 09:34N 31°40' E 121°12'1312.6
2015-Jan-08 08:32N 31°47' E 120°59'1110.8
2015-Jan-08 07:33N 31°55' E 120°52'3 2.6
2015-Jan-08 06:26N 31°58' E 120°51'0 0.0
2015-Jan-08 05:29N 31°58' E 120°51'0 0.0
2015-Jan-08 04:32N 31°58' E 120°51'0 0.0
2015-Jan-08 03:50N 31°58' E 120°51'0 0.0
2015-Jan-07 20:32N 31°58' E 120°51'0 0.0
2015-Jan-07 19:31N 31°58' E 120°51'0 0.0
2015-Jan-07 18:31N 31°58' E 120°51'0 0.0
2015-Jan-07 17:23N 31°58' E 120°51'0 0.0
2015-Jan-07 16:32N 31°58' E 120°51'0 0.0
2015-Jan-07 15:29N 31°58' E 120°51'0 0.0
2015-Jan-07 14:32N 31°58' E 120°51'0 0.0
2015-Jan-07 13:32N 31°58' E 120°51'0 0.0
2015-Jan-07 12:29N 31°58' E 120°51'0 0.0
2015-Jan-07 11:32N 31°58' E 120°51'0 0.0
2015-Jan-07 10:28N 31°58' E 120°51'0 0.0
2015-Jan-07 09:32N 31°58' E 120°51'2 1.8
2015-Jan-07 08:33N 31°59' E 120°50'9 9.2
2015-Jan-07 07:33N 31°60' E 120°39'4 4.1
2015-Jan-07 06:33N 31°60' E 120°34'0 0.0
2015-Jan-07 05:33N 31°60' E 120°34'0 0.0
2015-Jan-07 04:30N 31°60' E 120°34'0 0.0
2015-Jan-07 03:30N 31°60' E 120°34'0 0.0
2015-Jan-07 02:33N 31°60' E 120°34'0 0.0
2015-Jan-07 01:33N 31°60' E 120°34'0 0.0
2015-Jan-07 00:33N 31°60' E 120°34'0 0.0
2015-Jan-06 23:33N 31°60' E 120°34'0 0.0
2015-Jan-06 22:30N 31°60' E 120°34'0 0.0
2015-Jan-06 21:33N 31°60' E 120°34'0 0.0
2015-Jan-06 20:33N 31°60' E 120°34'0 0.0
2015-Jan-06 19:33N 31°60' E 120°34'0 0.0
2015-Jan-06 18:33N 31°60' E 120°34'0 0.0
2015-Jan-06 17:30N 31°60' E 120°34'0 0.0
2015-Jan-06 16:33N 31°60' E 120°34'0 0.0
2015-Jan-06 15:33N 31°60' E 120°34'0 0.0
2015-Jan-06 14:33N 31°60' E 120°34'0 0.0
2015-Jan-06 13:30N 31°60' E 120°34'0 0.0
2015-Jan-06 12:33N 31°60' E 120°34'0 0.0
2015-Jan-06 11:33N 31°60' E 120°34'0 0.0
2015-Jan-06 10:33N 31°60' E 120°34'0 0.0
2015-Jan-06 09:33N 31°60' E 120°34'1 0.8
2015-Jan-06 08:33N 32°01' E 120°34'6 6.0
2015-Jan-06 07:33N 32°01' E 120°27'5 5.4
2015-Jan-06 06:33N 31°58' E 120°22'8 7.9
2015-Jan-06 05:33N 31°56' E 120°13'1110.8
2015-Jan-06 04:33N 31°59' E 120°00'1513.8
2015-Jan-06 03:28N 32°12' E 119°53'10 0.4
2015-Jan-05 00:31N 32°15' E 119°41'2 0.4
2015-Jan-04 20:29N 32°16' E 119°42'3 2.9
2015-Jan-04 19:34N 32°19' E 119°43'9 8.6
2015-Jan-04 18:33N 32°15' E 119°53'1111.0
2015-Jan-04 17:33N 32°05' E 119°56'10 9.7
2015-Jan-04 16:33N 31°58' E 120°04'9 9.3
2015-Jan-04 15:33N 31°56' E 120°15'7 7.0
2015-Jan-04 14:34N 31°58' E 120°22'5 5.2
2015-Jan-04 13:34N 32°02' E 120°27'9 9.2
2015-Jan-04 12:34N 31°60' E 120°38'10 9.5
2015-Jan-04 11:33N 32°00' E 120°49'1110.9
2015-Jan-04 10:33N 31°50' E 120°54'1010.2
2015-Jan-04 09:33N 31°46' E 121°05'1111.2
2015-Jan-04 08:33N 31°38' E 121°15'1111.4
2015-Jan-04 07:34N 31°31' E 121°24'9 8.6
2015-Jan-04 06:34N 31°25' E 121°32'8 7.7
2015-Jan-04 05:33N 31°21' E 121°40'8 8.1
2015-Jan-04 04:34N 31°17' E 121°48'1312.6
2015-Jan-04 03:33N 31°14' E 122°03'1313.1
2015-Jan-04 02:34N 31°08' E 122°16'1010.1
2015-Jan-04 01:33N 31°07' E 122°28'9 8.9
2015-Jan-04 00:34N 31°07' E 122°38'6 5.2
2015-Jan-03 23:30N 31°09' E 122°44'0 0.0
2015-Jan-03 22:30N 31°09' E 122°44'0 0.1
2015-Jan-03 21:30N 31°09' E 122°44'0 0.0
2015-Jan-03 20:24N 31°09' E 122°44'0 0.1
2015-Jan-03 19:24N 31°09' E 122°44'0 0.0
2015-Jan-03 18:30N 31°09' E 122°44'0 0.1
2015-Jan-03 17:30N 31°09' E 122°44'0 0.1
2015-Jan-03 14:06N 31°09' E 122°44'0 0.1
2015-Jan-03 13:30N 31°09' E 122°44'  

Dump ship's entire track history